sensor_id;sensor_type;location;lat;lon;timestamp;P1;durP1;ratioP1;P2;durP2;ratioP2
33844;SDS011;20145;43.118;25.694;2023-10-19T00:00:54;7.93;;;4.43;;
33844;SDS011;20145;43.118;25.694;2023-10-19T00:03:21;5.50;;;4.82;;
33844;SDS011;20145;43.118;25.694;2023-10-19T00:05:50;6.57;;;5.93;;
33844;SDS011;20145;43.118;25.694;2023-10-19T00:08:15;11.30;;;7.32;;
33844;SDS011;20145;43.118;25.694;2023-10-19T00:10:46;9.80;;;7.43;;
33844;SDS011;20145;43.118;25.694;2023-10-19T00:13:36;7.53;;;5.97;;
33844;SDS011;20145;43.118;25.694;2023-10-19T00:16:03;7.78;;;6.20;;
33844;SDS011;20145;43.118;25.694;2023-10-19T00:18:54;7.57;;;6.32;;
33844;SDS011;20145;43.118;25.694;2023-10-19T00:21:24;7.18;;;5.97;;
33844;SDS011;20145;43.118;25.694;2023-10-19T00:23:51;7.57;;;5.75;;
33844;SDS011;20145;43.118;25.694;2023-10-19T00:26:25;6.43;;;5.75;;
33844;SDS011;20145;43.118;25.694;2023-10-19T00:28:52;10.05;;;5.95;;
33844;SDS011;20145;43.118;25.694;2023-10-19T00:31:21;8.50;;;5.20;;
33844;SDS011;20145;43.118;25.694;2023-10-19T00:33:52;8.55;;;4.68;;
33844;SDS011;20145;43.118;25.694;2023-10-19T00:36:20;10.48;;;5.00;;
33844;SDS011;20145;43.118;25.694;2023-10-19T00:38:46;6.20;;;4.97;;
33844;SDS011;20145;43.118;25.694;2023-10-19T00:41:20;5.47;;;4.68;;
33844;SDS011;20145;43.118;25.694;2023-10-19T00:43:50;11.45;;;5.00;;
33844;SDS011;20145;43.118;25.694;2023-10-19T00:46:36;8.52;;;4.97;;
33844;SDS011;20145;43.118;25.694;2023-10-19T00:49:09;7.70;;;4.80;;
33844;SDS011;20145;43.118;25.694;2023-10-19T00:51:43;9.32;;;5.57;;
33844;SDS011;20145;43.118;25.694;2023-10-19T00:54:35;8.00;;;5.45;;
33844;SDS011;20145;43.118;25.694;2023-10-19T00:57:16;5.65;;;5.05;;
33844;SDS011;20145;43.118;25.694;2023-10-19T00:59:57;7.57;;;4.80;;
33844;SDS011;20145;43.118;25.694;2023-10-19T01:02:36;7.00;;;4.90;;
33844;SDS011;20145;43.118;25.694;2023-10-19T01:05:11;7.25;;;5.00;;
33844;SDS011;20145;43.118;25.694;2023-10-19T01:07:46;6.90;;;4.90;;
33844;SDS011;20145;43.118;25.694;2023-10-19T01:10:16;5.47;;;4.93;;
33844;SDS011;20145;43.118;25.694;2023-10-19T01:12:45;7.18;;;4.97;;
33844;SDS011;20145;43.118;25.694;2023-10-19T01:15:12;5.55;;;4.95;;
33844;SDS011;20145;43.118;25.694;2023-10-19T01:17:39;6.30;;;5.70;;
33844;SDS011;20145;43.118;25.694;2023-10-19T01:20:09;7.60;;;5.97;;
33844;SDS011;20145;43.118;25.694;2023-10-19T01:22:56;6.43;;;4.80;;
33844;SDS011;20145;43.118;25.694;2023-10-19T01:25:50;7.22;;;5.57;;
33844;SDS011;20145;43.118;25.694;2023-10-19T01:31:07;7.60;;;5.13;;
33844;SDS011;20145;43.118;25.694;2023-10-19T01:33:58;6.00;;;5.40;;
33844;SDS011;20145;43.118;25.694;2023-10-19T01:36:26;6.68;;;5.35;;
33844;SDS011;20145;43.118;25.694;2023-10-19T01:38:55;5.82;;;5.10;;
33844;SDS011;20145;43.118;25.694;2023-10-19T01:41:25;10.50;;;5.65;;
33844;SDS011;20145;43.118;25.694;2023-10-19T01:43:52;9.65;;;5.80;;
33844;SDS011;20145;43.118;25.694;2023-10-19T01:46:19;7.85;;;5.82;;
33844;SDS011;20145;43.118;25.694;2023-10-19T01:49:11;9.40;;;5.85;;
33844;SDS011;20145;43.118;25.694;2023-10-19T01:51:37;8.63;;;6.03;;
33844;SDS011;20145;43.118;25.694;2023-10-19T01:54:08;8.52;;;6.65;;
33844;SDS011;20145;43.118;25.694;2023-10-19T01:56:34;9.15;;;6.00;;
33844;SDS011;20145;43.118;25.694;2023-10-19T01:59:01;8.45;;;5.97;;
33844;SDS011;20145;43.118;25.694;2023-10-19T02:01:33;9.38;;;5.65;;
33844;SDS011;20145;43.118;25.694;2023-10-19T02:03:59;7.65;;;6.43;;
33844;SDS011;20145;43.118;25.694;2023-10-19T02:06:27;7.57;;;6.65;;
33844;SDS011;20145;43.118;25.694;2023-10-19T02:09:04;7.47;;;6.47;;
33844;SDS011;20145;43.118;25.694;2023-10-19T02:11:41;10.80;;;7.72;;
33844;SDS011;20145;43.118;25.694;2023-10-19T02:14:07;13.68;;;7.47;;
33844;SDS011;20145;43.118;25.694;2023-10-19T02:16:40;11.55;;;8.40;;
33844;SDS011;20145;43.118;25.694;2023-10-19T02:19:16;12.10;;;8.73;;
33844;SDS011;20145;43.118;25.694;2023-10-19T02:21:42;12.27;;;8.02;;
33844;SDS011;20145;43.118;25.694;2023-10-19T02:24:08;11.10;;;8.48;;
33844;SDS011;20145;43.118;25.694;2023-10-19T02:26:39;10.55;;;8.63;;
33844;SDS011;20145;43.118;25.694;2023-10-19T02:29:06;11.55;;;8.77;;
33844;SDS011;20145;43.118;25.694;2023-10-19T02:31:34;11.68;;;9.07;;
33844;SDS011;20145;43.118;25.694;2023-10-19T02:34:05;7.30;;;6.57;;
33844;SDS011;20145;43.118;25.694;2023-10-19T02:36:35;11.77;;;8.90;;
33844;SDS011;20145;43.118;25.694;2023-10-19T02:39:03;11.80;;;8.68;;
33844;SDS011;20145;43.118;25.694;2023-10-19T02:41:38;12.63;;;9.07;;
33844;SDS011;20145;43.118;25.694;2023-10-19T02:44:15;9.70;;;8.70;;
33844;SDS011;20145;43.118;25.694;2023-10-19T02:46:43;12.02;;;8.57;;
33844;SDS011;20145;43.118;25.694;2023-10-19T02:49:17;12.65;;;8.73;;
33844;SDS011;20145;43.118;25.694;2023-10-19T02:51:45;11.68;;;8.98;;
33844;SDS011;20145;43.118;25.694;2023-10-19T02:54:12;10.38;;;8.48;;
33844;SDS011;20145;43.118;25.694;2023-10-19T02:57:01;10.98;;;8.25;;
33844;SDS011;20145;43.118;25.694;2023-10-19T02:59:31;11.43;;;9.00;;
33844;SDS011;20145;43.118;25.694;2023-10-19T03:02:00;10.50;;;9.40;;
33844;SDS011;20145;43.118;25.694;2023-10-19T03:04:32;13.00;;;9.38;;
33844;SDS011;20145;43.118;25.694;2023-10-19T03:07:02;11.60;;;8.43;;
33844;SDS011;20145;43.118;25.694;2023-10-19T03:09:29;13.90;;;9.20;;
33844;SDS011;20145;43.118;25.694;2023-10-19T03:11:55;10.50;;;8.60;;
33844;SDS011;20145;43.118;25.694;2023-10-19T03:14:27;11.43;;;8.55;;
33844;SDS011;20145;43.118;25.694;2023-10-19T03:16:53;9.35;;;8.35;;
33844;SDS011;20145;43.118;25.694;2023-10-19T03:19:20;16.30;;;9.63;;
33844;SDS011;20145;43.118;25.694;2023-10-19T03:21:46;11.05;;;8.63;;
33844;SDS011;20145;43.118;25.694;2023-10-19T03:24:15;16.25;;;8.98;;
33844;SDS011;20145;43.118;25.694;2023-10-19T03:27:07;11.85;;;9.60;;
33844;SDS011;20145;43.118;25.694;2023-10-19T03:29:47;9.45;;;8.23;;
33844;SDS011;20145;43.118;25.694;2023-10-19T03:32:19;10.30;;;8.95;;
33844;SDS011;20145;43.118;25.694;2023-10-19T03:34:51;12.05;;;8.90;;
33844;SDS011;20145;43.118;25.694;2023-10-19T03:37:28;11.68;;;10.18;;
33844;SDS011;20145;43.118;25.694;2023-10-19T03:39:57;13.82;;;10.30;;
33844;SDS011;20145;43.118;25.694;2023-10-19T03:42:24;15.80;;;10.18;;
33844;SDS011;20145;43.118;25.694;2023-10-19T03:45:05;11.70;;;9.50;;
33844;SDS011;20145;43.118;25.694;2023-10-19T03:47:38;14.18;;;9.77;;
33844;SDS011;20145;43.118;25.694;2023-10-19T03:50:04;10.98;;;8.82;;
33844;SDS011;20145;43.118;25.694;2023-10-19T03:52:38;11.15;;;8.75;;
33844;SDS011;20145;43.118;25.694;2023-10-19T03:55:04;11.65;;;8.60;;
33844;SDS011;20145;43.118;25.694;2023-10-19T03:57:36;13.45;;;9.18;;
33844;SDS011;20145;43.118;25.694;2023-10-19T04:00:06;10.88;;;9.10;;
33844;SDS011;20145;43.118;25.694;2023-10-19T04:02:36;13.35;;;10.68;;
33844;SDS011;20145;43.118;25.694;2023-10-19T04:05:03;11.73;;;10.50;;
33844;SDS011;20145;43.118;25.694;2023-10-19T04:07:29;12.75;;;9.80;;
33844;SDS011;20145;43.118;25.694;2023-10-19T04:09:58;13.93;;;8.57;;
33844;SDS011;20145;43.118;25.694;2023-10-19T04:12:35;19.45;;;9.15;;
33844;SDS011;20145;43.118;25.694;2023-10-19T04:15:03;13.90;;;9.57;;
33844;SDS011;20145;43.118;25.694;2023-10-19T04:17:41;15.85;;;9.60;;
33844;SDS011;20145;43.118;25.694;2023-10-19T04:20:08;13.18;;;11.07;;
33844;SDS011;20145;43.118;25.694;2023-10-19T04:22:46;36.28;;;14.90;;
33844;SDS011;20145;43.118;25.694;2023-10-19T04:25:16;17.10;;;12.48;;
33844;SDS011;20145;43.118;25.694;2023-10-19T04:27:48;16.42;;;10.27;;
33844;SDS011;20145;43.118;25.694;2023-10-19T04:30:14;12.23;;;10.30;;
33844;SDS011;20145;43.118;25.694;2023-10-19T04:32:47;21.25;;;12.35;;
33844;SDS011;20145;43.118;25.694;2023-10-19T04:35:14;11.30;;;9.90;;
33844;SDS011;20145;43.118;25.694;2023-10-19T04:37:47;12.63;;;10.40;;
33844;SDS011;20145;43.118;25.694;2023-10-19T04:40:15;13.23;;;10.45;;
33844;SDS011;20145;43.118;25.694;2023-10-19T04:42:41;12.55;;;10.45;;
33844;SDS011;20145;43.118;25.694;2023-10-19T04:45:07;14.77;;;11.13;;
33844;SDS011;20145;43.118;25.694;2023-10-19T04:47:33;12.35;;;10.80;;
33844;SDS011;20145;43.118;25.694;2023-10-19T04:50:02;15.13;;;12.15;;
33844;SDS011;20145;43.118;25.694;2023-10-19T04:52:28;13.75;;;11.65;;
33844;SDS011;20145;43.118;25.694;2023-10-19T04:54:54;17.55;;;11.45;;
33844;SDS011;20145;43.118;25.694;2023-10-19T04:57:19;22.00;;;11.38;;
33844;SDS011;20145;43.118;25.694;2023-10-19T04:59:46;15.30;;;10.63;;
33844;SDS011;20145;43.118;25.694;2023-10-19T05:02:12;25.13;;;11.75;;
33844;SDS011;20145;43.118;25.694;2023-10-19T05:04:38;27.33;;;12.55;;
33844;SDS011;20145;43.118;25.694;2023-10-19T05:07:05;19.85;;;12.05;;
33844;SDS011;20145;43.118;25.694;2023-10-19T05:09:37;25.90;;;16.05;;
33844;SDS011;20145;43.118;25.694;2023-10-19T05:12:05;12.98;;;11.18;;
33844;SDS011;20145;43.118;25.694;2023-10-19T05:14:38;15.45;;;11.50;;
33844;SDS011;20145;43.118;25.694;2023-10-19T05:17:07;20.85;;;12.85;;
33844;SDS011;20145;43.118;25.694;2023-10-19T05:19:37;28.33;;;15.20;;
33844;SDS011;20145;43.118;25.694;2023-10-19T05:22:08;24.60;;;13.55;;
33844;SDS011;20145;43.118;25.694;2023-10-19T05:24:34;21.15;;;16.13;;
33844;SDS011;20145;43.118;25.694;2023-10-19T05:27:01;18.55;;;12.60;;
33844;SDS011;20145;43.118;25.694;2023-10-19T05:29:27;24.00;;;16.40;;
33844;SDS011;20145;43.118;25.694;2023-10-19T05:31:52;23.20;;;14.27;;
33844;SDS011;20145;43.118;25.694;2023-10-19T05:34:22;23.80;;;17.00;;
33844;SDS011;20145;43.118;25.694;2023-10-19T05:37:01;23.08;;;16.48;;
33844;SDS011;20145;43.118;25.694;2023-10-19T05:39:28;22.70;;;17.33;;
33844;SDS011;20145;43.118;25.694;2023-10-19T05:41:56;27.65;;;18.30;;
33844;SDS011;20145;43.118;25.694;2023-10-19T05:44:24;32.22;;;22.27;;
33844;SDS011;20145;43.118;25.694;2023-10-19T05:46:50;26.00;;;21.55;;
33844;SDS011;20145;43.118;25.694;2023-10-19T05:49:16;32.60;;;20.55;;
33844;SDS011;20145;43.118;25.694;2023-10-19T05:51:42;26.50;;;20.75;;
33844;SDS011;20145;43.118;25.694;2023-10-19T05:54:10;26.55;;;20.38;;
33844;SDS011;20145;43.118;25.694;2023-10-19T05:56:35;24.17;;;16.75;;
33844;SDS011;20145;43.118;25.694;2023-10-19T05:59:01;21.63;;;15.88;;
33844;SDS011;20145;43.118;25.694;2023-10-19T06:01:27;22.13;;;15.65;;
33844;SDS011;20145;43.118;25.694;2023-10-19T06:03:53;21.65;;;14.02;;
33844;SDS011;20145;43.118;25.694;2023-10-19T06:06:20;22.60;;;15.30;;
33844;SDS011;20145;43.118;25.694;2023-10-19T06:08:46;19.63;;;14.40;;
33844;SDS011;20145;43.118;25.694;2023-10-19T06:11:11;15.23;;;13.20;;
33844;SDS011;20145;43.118;25.694;2023-10-19T06:13:38;17.08;;;13.05;;
33844;SDS011;20145;43.118;25.694;2023-10-19T06:16:04;17.05;;;12.80;;
33844;SDS011;20145;43.118;25.694;2023-10-19T06:18:29;16.77;;;13.98;;
33844;SDS011;20145;43.118;25.694;2023-10-19T06:20:55;13.75;;;10.38;;
33844;SDS011;20145;43.118;25.694;2023-10-19T06:23:21;15.63;;;12.35;;
33844;SDS011;20145;43.118;25.694;2023-10-19T06:25:46;17.10;;;13.30;;
33844;SDS011;20145;43.118;25.694;2023-10-19T06:28:12;14.15;;;10.10;;
33844;SDS011;20145;43.118;25.694;2023-10-19T06:30:38;17.30;;;11.93;;
33844;SDS011;20145;43.118;25.694;2023-10-19T06:33:07;11.30;;;9.80;;
33844;SDS011;20145;43.118;25.694;2023-10-19T06:35:33;13.50;;;9.02;;
33844;SDS011;20145;43.118;25.694;2023-10-19T06:38:01;13.57;;;10.00;;
33844;SDS011;20145;43.118;25.694;2023-10-19T06:40:28;11.38;;;8.98;;
33844;SDS011;20145;43.118;25.694;2023-10-19T06:42:55;12.13;;;9.52;;
33844;SDS011;20145;43.118;25.694;2023-10-19T06:45:21;13.30;;;9.75;;
33844;SDS011;20145;43.118;25.694;2023-10-19T06:47:47;13.27;;;8.98;;
33844;SDS011;20145;43.118;25.694;2023-10-19T06:50:16;10.25;;;8.77;;
33844;SDS011;20145;43.118;25.694;2023-10-19T06:52:45;11.93;;;9.32;;
33844;SDS011;20145;43.118;25.694;2023-10-19T06:55:14;12.43;;;8.43;;
33844;SDS011;20145;43.118;25.694;2023-10-19T06:57:51;12.70;;;9.00;;
33844;SDS011;20145;43.118;25.694;2023-10-19T07:00:21;11.55;;;8.73;;
33844;SDS011;20145;43.118;25.694;2023-10-19T07:02:48;12.05;;;7.78;;
33844;SDS011;20145;43.118;25.694;2023-10-19T07:05:16;11.55;;;8.13;;
33844;SDS011;20145;43.118;25.694;2023-10-19T07:07:49;9.85;;;8.45;;
33844;SDS011;20145;43.118;25.694;2023-10-19T07:10:17;9.82;;;8.02;;
33844;SDS011;20145;43.118;25.694;2023-10-19T07:12:44;9.15;;;7.88;;
33844;SDS011;20145;43.118;25.694;2023-10-19T07:15:11;12.57;;;7.88;;
33844;SDS011;20145;43.118;25.694;2023-10-19T07:17:44;9.93;;;7.85;;
33844;SDS011;20145;43.118;25.694;2023-10-19T07:20:11;10.23;;;7.53;;
33844;SDS011;20145;43.118;25.694;2023-10-19T07:22:54;8.15;;;7.35;;
33844;SDS011;20145;43.118;25.694;2023-10-19T07:25:22;15.57;;;8.18;;
33844;SDS011;20145;43.118;25.694;2023-10-19T07:27:51;13.45;;;7.95;;
33844;SDS011;20145;43.118;25.694;2023-10-19T07:30:18;12.45;;;8.32;;
33844;SDS011;20145;43.118;25.694;2023-10-19T07:32:51;8.70;;;6.78;;
33844;SDS011;20145;43.118;25.694;2023-10-19T07:35:24;7.95;;;7.18;;
33844;SDS011;20145;43.118;25.694;2023-10-19T07:37:53;8.75;;;7.07;;
33844;SDS011;20145;43.118;25.694;2023-10-19T07:40:19;8.20;;;6.75;;
33844;SDS011;20145;43.118;25.694;2023-10-19T07:42:45;9.15;;;6.93;;
33844;SDS011;20145;43.118;25.694;2023-10-19T07:45:11;6.72;;;5.70;;
33844;SDS011;20145;43.118;25.694;2023-10-19T07:47:40;9.32;;;5.78;;
33844;SDS011;20145;43.118;25.694;2023-10-19T07:50:12;8.05;;;6.55;;
33844;SDS011;20145;43.118;25.694;2023-10-19T07:52:42;6.60;;;5.97;;
33844;SDS011;20145;43.118;25.694;2023-10-19T07:55:17;7.03;;;5.85;;
33844;SDS011;20145;43.118;25.694;2023-10-19T07:57:44;9.10;;;5.38;;
33844;SDS011;20145;43.118;25.694;2023-10-19T08:00:10;7.05;;;5.22;;
33844;SDS011;20145;43.118;25.694;2023-10-19T08:02:39;7.65;;;5.28;;
33844;SDS011;20145;43.118;25.694;2023-10-19T08:05:10;5.90;;;5.25;;
33844;SDS011;20145;43.118;25.694;2023-10-19T08:07:37;6.25;;;5.13;;
33844;SDS011;20145;43.118;25.694;2023-10-19T08:10:05;5.38;;;4.88;;
33844;SDS011;20145;43.118;25.694;2023-10-19T08:12:34;5.78;;;5.18;;
33844;SDS011;20145;43.118;25.694;2023-10-19T08:15:01;6.72;;;4.95;;
33844;SDS011;20145;43.118;25.694;2023-10-19T08:17:27;6.03;;;4.93;;
33844;SDS011;20145;43.118;25.694;2023-10-19T08:19:52;8.38;;;5.20;;
33844;SDS011;20145;43.118;25.694;2023-10-19T08:22:18;9.20;;;5.20;;
33844;SDS011;20145;43.118;25.694;2023-10-19T08:24:44;6.13;;;4.68;;
33844;SDS011;20145;43.118;25.694;2023-10-19T08:27:11;5.45;;;4.95;;
33844;SDS011;20145;43.118;25.694;2023-10-19T08:29:38;9.02;;;4.65;;
33844;SDS011;20145;43.118;25.694;2023-10-19T08:32:04;6.07;;;4.63;;
33844;SDS011;20145;43.118;25.694;2023-10-19T08:34:34;5.35;;;4.45;;
33844;SDS011;20145;43.118;25.694;2023-10-19T08:37:01;4.95;;;4.45;;
33844;SDS011;20145;43.118;25.694;2023-10-19T08:39:27;4.82;;;4.32;;
33844;SDS011;20145;43.118;25.694;2023-10-19T08:41:53;6.40;;;4.50;;
33844;SDS011;20145;43.118;25.694;2023-10-19T08:44:20;5.32;;;4.30;;
33844;SDS011;20145;43.118;25.694;2023-10-19T08:46:46;5.68;;;4.45;;
33844;SDS011;20145;43.118;25.694;2023-10-19T08:49:17;4.75;;;4.20;;
33844;SDS011;20145;43.118;25.694;2023-10-19T08:51:45;5.78;;;4.30;;
33844;SDS011;20145;43.118;25.694;2023-10-19T08:54:12;7.25;;;3.63;;
33844;SDS011;20145;43.118;25.694;2023-10-19T08:56:39;5.13;;;4.18;;
33844;SDS011;20145;43.118;25.694;2023-10-19T08:59:06;6.00;;;3.90;;
33844;SDS011;20145;43.118;25.694;2023-10-19T09:01:32;4.45;;;4.05;;
33844;SDS011;20145;43.118;25.694;2023-10-19T09:04:00;4.68;;;4.28;;
33844;SDS011;20145;43.118;25.694;2023-10-19T09:06:26;8.35;;;4.10;;
33844;SDS011;20145;43.118;25.694;2023-10-19T09:08:56;4.47;;;4.00;;
33844;SDS011;20145;43.118;25.694;2023-10-19T09:11:23;3.88;;;3.58;;
33844;SDS011;20145;43.118;25.694;2023-10-19T09:13:51;5.18;;;4.13;;
33844;SDS011;20145;43.118;25.694;2023-10-19T09:16:18;6.43;;;3.92;;
33844;SDS011;20145;43.118;25.694;2023-10-19T09:18:45;4.32;;;3.13;;
33844;SDS011;20145;43.118;25.694;2023-10-19T09:21:20;8.73;;;3.38;;
33844;SDS011;20145;43.118;25.694;2023-10-19T09:23:56;3.85;;;3.53;;
33844;SDS011;20145;43.118;25.694;2023-10-19T09:26:23;4.03;;;3.70;;
33844;SDS011;20145;43.118;25.694;2023-10-19T09:28:50;4.30;;;3.80;;
33844;SDS011;20145;43.118;25.694;2023-10-19T09:31:18;5.50;;;3.40;;
33844;SDS011;20145;43.118;25.694;2023-10-19T09:33:46;5.05;;;3.80;;
33844;SDS011;20145;43.118;25.694;2023-10-19T09:36:14;2.95;;;2.65;;
33844;SDS011;20145;43.118;25.694;2023-10-19T09:38:47;3.90;;;3.50;;
33844;SDS011;20145;43.118;25.694;2023-10-19T09:41:14;3.92;;;3.42;;
33844;SDS011;20145;43.118;25.694;2023-10-19T09:43:46;3.47;;;3.17;;
33844;SDS011;20145;43.118;25.694;2023-10-19T09:46:19;3.15;;;2.85;;
33844;SDS011;20145;43.118;25.694;2023-10-19T09:48:46;5.07;;;3.22;;
33844;SDS011;20145;43.118;25.694;2023-10-19T09:51:16;8.13;;;2.80;;
33844;SDS011;20145;43.118;25.694;2023-10-19T09:53:45;3.20;;;2.95;;
33844;SDS011;20145;43.118;25.694;2023-10-19T09:56:28;3.85;;;3.10;;
33844;SDS011;20145;43.118;25.694;2023-10-19T09:59:00;4.18;;;2.88;;
33844;SDS011;20145;43.118;25.694;2023-10-19T10:02:02;4.22;;;3.00;;
33844;SDS011;20145;43.118;25.694;2023-10-19T10:04:31;3.20;;;2.90;;
33844;SDS011;20145;43.118;25.694;2023-10-19T10:06:58;2.70;;;2.50;;
33844;SDS011;20145;43.118;25.694;2023-10-19T10:09:29;5.18;;;2.60;;
33844;SDS011;20145;43.118;25.694;2023-10-19T10:11:55;2.38;;;2.17;;
33844;SDS011;20145;43.118;25.694;2023-10-19T10:14:25;2.85;;;2.38;;
33844;SDS011;20145;43.118;25.694;2023-10-19T10:17:03;5.20;;;2.67;;
33844;SDS011;20145;43.118;25.694;2023-10-19T10:19:36;2.63;;;2.22;;
33844;SDS011;20145;43.118;25.694;2023-10-19T10:22:08;3.28;;;2.38;;
33844;SDS011;20145;43.118;25.694;2023-10-19T10:24:44;3.50;;;2.85;;
33844;SDS011;20145;43.118;25.694;2023-10-19T10:27:11;2.30;;;2.10;;
33844;SDS011;20145;43.118;25.694;2023-10-19T10:30:00;2.60;;;2.40;;
33844;SDS011;20145;43.118;25.694;2023-10-19T10:32:45;2.95;;;2.65;;
33844;SDS011;20145;43.118;25.694;2023-10-19T10:38:07;3.47;;;2.20;;
33844;SDS011;20145;43.118;25.694;2023-10-19T10:40:44;2.50;;;2.30;;
33844;SDS011;20145;43.118;25.694;2023-10-19T10:43:13;4.00;;;2.40;;
33844;SDS011;20145;43.118;25.694;2023-10-19T10:45:39;3.10;;;2.42;;
33844;SDS011;20145;43.118;25.694;2023-10-19T10:48:12;2.88;;;2.00;;
33844;SDS011;20145;43.118;25.694;2023-10-19T10:50:38;3.28;;;2.33;;
33844;SDS011;20145;43.118;25.694;2023-10-19T10:53:05;2.00;;;1.90;;
33844;SDS011;20145;43.118;25.694;2023-10-19T10:55:30;2.67;;;2.30;;
33844;SDS011;20145;43.118;25.694;2023-10-19T10:57:57;2.85;;;2.05;;
33844;SDS011;20145;43.118;25.694;2023-10-19T11:00:24;2.28;;;1.92;;
33844;SDS011;20145;43.118;25.694;2023-10-19T11:03:04;2.33;;;2.03;;
33844;SDS011;20145;43.118;25.694;2023-10-19T11:05:35;2.20;;;2.05;;
33844;SDS011;20145;43.118;25.694;2023-10-19T11:08:03;3.72;;;2.10;;
33844;SDS011;20145;43.118;25.694;2023-10-19T11:10:43;2.33;;;2.13;;
33844;SDS011;20145;43.118;25.694;2023-10-19T11:13:14;2.55;;;2.35;;
33844;SDS011;20145;43.118;25.694;2023-10-19T11:15:54;3.50;;;2.40;;
33844;SDS011;20145;43.118;25.694;2023-10-19T11:18:31;6.85;;;2.15;;
33844;SDS011;20145;43.118;25.694;2023-10-19T11:20:57;3.70;;;2.63;;
33844;SDS011;20145;43.118;25.694;2023-10-19T11:26:01;5.97;;;2.08;;
33844;SDS011;20145;43.118;25.694;2023-10-19T11:28:34;4.25;;;2.08;;
33844;SDS011;20145;43.118;25.694;2023-10-19T11:31:10;3.25;;;2.13;;
33844;SDS011;20145;43.118;25.694;2023-10-19T11:33:43;4.30;;;2.28;;
33844;SDS011;20145;43.118;25.694;2023-10-19T11:36:10;3.45;;;2.20;;
33844;SDS011;20145;43.118;25.694;2023-10-19T11:38:41;4.60;;;2.30;;
33844;SDS011;20145;43.118;25.694;2023-10-19T11:41:07;6.00;;;2.30;;
33844;SDS011;20145;43.118;25.694;2023-10-19T11:43:34;2.10;;;2.00;;
33844;SDS011;20145;43.118;25.694;2023-10-19T11:46:00;4.32;;;2.38;;
33844;SDS011;20145;43.118;25.694;2023-10-19T11:48:27;5.20;;;2.70;;
33844;SDS011;20145;43.118;25.694;2023-10-19T11:50:53;4.10;;;2.67;;
33844;SDS011;20145;43.118;25.694;2023-10-19T11:53:18;4.07;;;2.28;;
33844;SDS011;20145;43.118;25.694;2023-10-19T11:55:45;2.53;;;2.33;;
33844;SDS011;20145;43.118;25.694;2023-10-19T11:58:13;3.72;;;2.45;;
33844;SDS011;20145;43.118;25.694;2023-10-19T12:00:40;2.72;;;2.20;;
33844;SDS011;20145;43.118;25.694;2023-10-19T12:03:11;5.22;;;4.40;;
33844;SDS011;20145;43.118;25.694;2023-10-19T12:05:38;4.70;;;2.78;;
33844;SDS011;20145;43.118;25.694;2023-10-19T12:08:04;3.10;;;2.33;;
33844;SDS011;20145;43.118;25.694;2023-10-19T12:10:31;5.43;;;2.60;;
33844;SDS011;20145;43.118;25.694;2023-10-19T12:13:04;3.20;;;2.60;;
33844;SDS011;20145;43.118;25.694;2023-10-19T12:15:33;4.95;;;2.80;;
33844;SDS011;20145;43.118;25.694;2023-10-19T12:17:59;5.35;;;2.60;;
33844;SDS011;20145;43.118;25.694;2023-10-19T12:20:27;3.00;;;2.67;;
33844;SDS011;20145;43.118;25.694;2023-10-19T12:22:53;2.90;;;2.47;;
33844;SDS011;20145;43.118;25.694;2023-10-19T12:25:22;2.50;;;2.30;;
33844;SDS011;20145;43.118;25.694;2023-10-19T12:27:54;3.05;;;2.75;;
33844;SDS011;20145;43.118;25.694;2023-10-19T12:30:20;3.80;;;2.63;;
33844;SDS011;20145;43.118;25.694;2023-10-19T12:32:50;4.65;;;2.60;;
33844;SDS011;20145;43.118;25.694;2023-10-19T12:35:16;3.00;;;2.55;;
33844;SDS011;20145;43.118;25.694;2023-10-19T12:37:45;2.63;;;2.42;;
33844;SDS011;20145;43.118;25.694;2023-10-19T12:40:17;3.03;;;2.55;;
33844;SDS011;20145;43.118;25.694;2023-10-19T12:43:03;3.65;;;2.63;;
33844;SDS011;20145;43.118;25.694;2023-10-19T12:48:05;3.15;;;2.35;;
33844;SDS011;20145;43.118;25.694;2023-10-19T12:50:31;5.57;;;2.95;;
33844;SDS011;20145;43.118;25.694;2023-10-19T12:52:59;3.33;;;2.70;;
33844;SDS011;20145;43.118;25.694;2023-10-19T12:55:25;4.72;;;3.00;;
33844;SDS011;20145;43.118;25.694;2023-10-19T12:57:56;2.60;;;2.40;;
33844;SDS011;20145;43.118;25.694;2023-10-19T13:00:23;2.63;;;2.40;;
33844;SDS011;20145;43.118;25.694;2023-10-19T13:02:49;3.25;;;2.45;;
33844;SDS011;20145;43.118;25.694;2023-10-19T13:05:15;7.50;;;3.08;;
33844;SDS011;20145;43.118;25.694;2023-10-19T13:07:44;3.30;;;2.38;;
33844;SDS011;20145;43.118;25.694;2023-10-19T13:10:10;3.35;;;2.70;;
33844;SDS011;20145;43.118;25.694;2023-10-19T13:12:36;3.97;;;2.70;;
33844;SDS011;20145;43.118;25.694;2023-10-19T13:15:03;4.97;;;2.55;;
33844;SDS011;20145;43.118;25.694;2023-10-19T13:17:36;5.68;;;2.78;;
33844;SDS011;20145;43.118;25.694;2023-10-19T13:20:02;7.07;;;2.95;;
33844;SDS011;20145;43.118;25.694;2023-10-19T13:22:41;2.80;;;2.60;;
33844;SDS011;20145;43.118;25.694;2023-10-19T13:25:07;4.13;;;2.92;;
33844;SDS011;20145;43.118;25.694;2023-10-19T13:27:34;10.85;;;3.38;;
33844;SDS011;20145;43.118;25.694;2023-10-19T13:30:00;12.55;;;3.13;;
33844;SDS011;20145;43.118;25.694;2023-10-19T13:32:29;11.90;;;3.10;;
33844;SDS011;20145;43.118;25.694;2023-10-19T13:34:56;13.63;;;3.20;;
33844;SDS011;20145;43.118;25.694;2023-10-19T13:37:22;9.77;;;2.55;;
33844;SDS011;20145;43.118;25.694;2023-10-19T13:39:48;9.50;;;3.22;;
33844;SDS011;20145;43.118;25.694;2023-10-19T13:42:14;15.27;;;3.30;;
33844;SDS011;20145;43.118;25.694;2023-10-19T13:44:40;7.28;;;3.25;;
33844;SDS011;20145;43.118;25.694;2023-10-19T13:47:05;7.80;;;3.00;;
33844;SDS011;20145;43.118;25.694;2023-10-19T13:49:35;7.47;;;3.30;;
33844;SDS011;20145;43.118;25.694;2023-10-19T13:52:00;9.65;;;2.92;;
33844;SDS011;20145;43.118;25.694;2023-10-19T13:54:26;3.95;;;2.97;;
33844;SDS011;20145;43.118;25.694;2023-10-19T13:56:52;4.40;;;2.95;;
33844;SDS011;20145;43.118;25.694;2023-10-19T13:59:17;5.68;;;3.22;;
33844;SDS011;20145;43.118;25.694;2023-10-19T14:01:43;7.40;;;2.97;;
33844;SDS011;20145;43.118;25.694;2023-10-19T14:04:09;4.25;;;3.05;;
33844;SDS011;20145;43.118;25.694;2023-10-19T14:06:35;8.02;;;3.63;;
33844;SDS011;20145;43.118;25.694;2023-10-19T14:09:00;3.78;;;3.30;;
33844;SDS011;20145;43.118;25.694;2023-10-19T14:11:27;11.05;;;3.15;;
33844;SDS011;20145;43.118;25.694;2023-10-19T14:13:53;3.38;;;2.83;;
33844;SDS011;20145;43.118;25.694;2023-10-19T14:16:19;5.07;;;3.10;;
33844;SDS011;20145;43.118;25.694;2023-10-19T14:18:45;6.57;;;3.10;;
33844;SDS011;20145;43.118;25.694;2023-10-19T14:21:12;6.70;;;3.45;;
33844;SDS011;20145;43.118;25.694;2023-10-19T14:23:39;6.00;;;3.38;;
33844;SDS011;20145;43.118;25.694;2023-10-19T14:26:06;9.30;;;3.83;;
33844;SDS011;20145;43.118;25.694;2023-10-19T14:28:32;8.02;;;3.20;;
33844;SDS011;20145;43.118;25.694;2023-10-19T14:30:57;16.48;;;3.55;;
33844;SDS011;20145;43.118;25.694;2023-10-19T14:33:23;5.72;;;4.25;;
33844;SDS011;20145;43.118;25.694;2023-10-19T14:35:48;6.10;;;3.35;;
33844;SDS011;20145;43.118;25.694;2023-10-19T14:38:14;14.50;;;3.75;;
33844;SDS011;20145;43.118;25.694;2023-10-19T14:40:40;13.70;;;3.72;;
33844;SDS011;20145;43.118;25.694;2023-10-19T14:43:13;28.67;;;5.15;;
33844;SDS011;20145;43.118;25.694;2023-10-19T14:45:40;15.15;;;4.32;;
33844;SDS011;20145;43.118;25.694;2023-10-19T14:48:07;14.65;;;3.58;;
33844;SDS011;20145;43.118;25.694;2023-10-19T14:50:35;12.93;;;3.95;;
33844;SDS011;20145;43.118;25.694;2023-10-19T14:53:01;5.78;;;3.83;;